Time;durP1;ratioP1;P1;durP2;ratioP2;P2;SDS_P1;SDS_P2;PMS_P1;PMS_P2;Temp;Humidity;BMP_temperature;BMP_pressure;BME280_temperature;BME280_humidity;BME280_pressure;Samples;Min_cycle;Max_cycle;Signal;HPM_P1;HPM_P2
2022/10/04 00:01:09;;;;;;;5.80;3.93;;;7.30;99.90;;;;;;5004835;28;20246;-51
2022/10/04 00:03:43;;;;;;;5.60;3.87;;;7.40;99.90;;;;;;5009147;28;20758;-51
2022/10/04 00:06:16;;;;;;;11.60;5.67;;;7.40;99.90;;;;;;5009500;28;20228;-51
2022/10/04 00:08:50;;;;;;;6.67;3.80;;;7.40;99.90;;;;;;5009768;28;20654;-51
2022/10/04 00:11:22;;;;;;;6.83;4.33;;;7.40;99.90;;;;;;5008856;28;20302;-51
2022/10/04 00:13:54;;;;;;;8.03;4.67;;;7.40;99.90;;;;;;5002431;28;20229;-51
2022/10/04 00:16:27;;;;;;;80.20;35.37;;;7.40;99.90;;;;;;5009440;28;20213;-51
2022/10/04 00:19:33;;;;;;;35.17;19.20;;;7.40;99.90;;;;;;5009507;28;20198;-50
2022/10/04 00:22:19;;;;;;;10.57;4.87;;;7.30;99.90;;;;;;5009005;28;20668;-51
2022/10/04 00:25:21;;;;;;;92.97;45.20;;;7.30;99.90;;;;;;5006311;28;20653;-50
2022/10/04 00:28:17;;;;;;;39.17;14.13;;;7.20;99.90;;;;;;4998659;28;20239;-51
2022/10/04 00:31:07;;;;;;;8.57;4.60;;;7.30;99.90;;;;;;5009091;28;20685;-51
2022/10/04 00:33:37;;;;;;;7.97;4.80;;;7.30;99.90;;;;;;5008784;28;20234;-50
2022/10/04 00:36:38;;;;;;;39.07;14.17;;;7.30;99.90;;;;;;5007844;28;20725;-51
2022/10/04 00:39:25;;;;;;;8.13;4.50;;;7.30;99.90;;;;;;5009197;28;20214;-51
2022/10/04 00:42:06;;;;;;;10.13;3.97;;;7.40;99.90;;;;;;5008411;28;20233;-51
2022/10/04 00:44:44;;;;;;;8.00;3.70;;;7.40;99.90;;;;;;5006986;28;20295;-50
2022/10/04 00:47:30;;;;;;;12.90;6.10;;;7.40;99.90;;;;;;5009169;28;20217;-51
2022/10/04 00:50:06;;;;;;;310.93;153.80;;;7.40;99.90;;;;;;5009403;28;20328;-50
2022/10/04 00:52:41;;;;;;;11.20;6.13;;;7.50;99.90;;;;;;5011579;28;20316;-51
2022/10/04 00:55:21;;;;;;;7.90;7.00;;;7.50;99.90;;;;;;5012120;28;20863;-51
2022/10/04 00:57:54;;;;;;;12.00;7.00;;;7.60;99.90;;;;;;5011763;28;20562;-51
2022/10/04 01:00:22;;;;;;;7.77;5.27;;;7.60;99.90;;;;;;5000027;28;20222;-51
2022/10/04 01:02:54;;;;;;;8.80;5.33;;;7.60;99.90;;;;;;5010338;28;20320;-51
2022/10/04 01:05:29;;;;;;;9.43;4.07;;;7.60;99.90;;;;;;5011381;28;20222;-51
2022/10/04 01:08:04;;;;;;;5.70;4.03;;;7.60;99.90;;;;;;5011610;28;20667;-51
2022/10/04 01:10:40;;;;;;;8.67;5.03;;;7.70;99.90;;;;;;5011692;28;20218;-51
2022/10/04 01:13:13;;;;;;;13.00;6.97;;;7.70;99.90;;;;;;5010884;28;20931;-51
2022/10/04 01:15:49;;;;;;;8.23;4.37;;;7.60;99.90;;;;;;5011697;28;20202;-51
2022/10/04 01:18:31;;;;;;;4.97;4.17;;;7.60;99.90;;;;;;5011998;28;20206;-52
2022/10/04 01:21:02;;;;;;;11.10;5.73;;;7.60;99.90;;;;;;5011572;28;20294;-51
2022/10/04 01:23:41;;;;;;;9.93;5.97;;;7.50;99.90;;;;;;5011074;28;20320;-51
2022/10/04 01:26:35;;;;;;;5.37;4.20;;;7.50;99.90;;;;;;5011652;28;20224;-51
2022/10/04 01:29:08;;;;;;;6.33;3.70;;;7.50;99.90;;;;;;5011183;28;20237;-51
2022/10/04 01:31:39;;;;;;;5.73;3.80;;;7.50;99.90;;;;;;5011811;28;20294;-51
2022/10/04 01:34:08;;;;;;;6.77;4.23;;;7.50;99.90;;;;;;5011160;28;20676;-51
2022/10/04 01:36:37;;;;;;;7.60;3.67;;;7.50;99.90;;;;;;5011325;28;20226;-51
2022/10/04 01:39:07;;;;;;;11.27;8.17;;;7.50;99.90;;;;;;5011028;28;20242;-51
2022/10/04 01:41:49;;;;;;;9.27;3.90;;;7.50;99.90;;;;;;4998872;28;20641;-50
2022/10/04 01:44:27;;;;;;;7.43;4.00;;;7.60;99.90;;;;;;5006500;28;20649;-51
2022/10/04 01:46:58;;;;;;;11.33;8.40;;;7.60;99.90;;;;;;5010803;28;20723;-51
2022/10/04 01:49:31;;;;;;;11.97;6.50;;;7.50;99.90;;;;;;5011464;28;20245;-51
2022/10/04 01:52:05;;;;;;;7.07;3.90;;;7.50;99.90;;;;;;5010869;28;20238;-51
2022/10/04 01:54:38;;;;;;;8.90;3.67;;;7.60;99.90;;;;;;5010256;28;20224;-51
2022/10/04 01:57:14;;;;;;;7.93;4.27;;;7.50;99.90;;;;;;5011009;28;20237;-51
2022/10/04 01:59:46;;;;;;;11.00;6.03;;;7.50;99.90;;;;;;5010477;28;20292;-51
2022/10/04 02:02:23;;;;;;;7.53;5.03;;;7.50;99.90;;;;;;5010255;28;20229;-51
2022/10/04 02:04:55;;;;;;;6.27;4.40;;;7.40;99.90;;;;;;5009872;28;20676;-51
2022/10/04 02:07:27;;;;;;;23.20;14.77;;;7.40;99.90;;;;;;5010707;28;20332;-51
2022/10/04 02:10:00;;;;;;;6.40;3.80;;;7.40;99.90;;;;;;5010631;28;20308;-51
2022/10/04 02:12:31;;;;;;;15.03;8.80;;;7.40;99.90;;;;;;5010619;28;20237;-51
2022/10/04 02:15:02;;;;;;;8.87;7.07;;;7.40;99.90;;;;;;4997830;28;20289;-51
2022/10/04 02:17:34;;;;;;;6.77;4.97;;;7.40;99.90;;;;;;5010507;28;20619;-51
2022/10/04 02:20:09;;;;;;;6.30;4.03;;;7.40;99.90;;;;;;5010866;28;20202;-51
2022/10/04 02:22:37;;;;;;;6.63;4.47;;;7.40;99.90;;;;;;5010028;28;20240;-50
2022/10/04 02:25:08;;;;;;;8.30;4.40;;;7.40;99.90;;;;;;5009739;28;20238;-51
2022/10/04 02:27:36;;;;;;;7.07;3.83;;;7.40;99.90;;;;;;5009815;28;20237;-51
2022/10/04 02:30:07;;;;;;;6.87;3.57;;;7.40;99.90;;;;;;5010024;28;20311;-50
2022/10/04 02:35:24;;;;;;;6.03;4.63;;;7.50;99.90;;;;;;5010462;28;20695;-51
2022/10/04 02:38:01;;;;;;;5.87;4.40;;;7.50;99.90;;;;;;5009886;28;20691;-51
2022/10/04 02:40:34;;;;;;;8.23;3.80;;;7.50;99.90;;;;;;5009712;28;20293;-51
2022/10/04 02:43:08;;;;;;;8.13;5.10;;;7.50;99.90;;;;;;5009299;28;20779;-51
2022/10/04 02:45:43;;;;;;;24.10;17.27;;;7.60;99.90;;;;;;5010055;28;20500;-51
2022/10/04 02:48:27;;;;;;;10.70;3.43;;;7.60;99.90;;;;;;5010045;28;20302;-55
2022/10/04 02:51:01;;;;;;;15.37;7.93;;;7.70;99.90;;;;;;5009897;28;20305;-51
2022/10/04 02:53:36;;;;;;;6.23;4.03;;;7.70;99.90;;;;;;5009252;28;20997;-51
2022/10/04 02:56:05;;;;;;;6.37;5.07;;;7.70;99.90;;;;;;5009803;28;20289;-51
2022/10/04 02:58:38;;;;;;;6.23;4.37;;;7.70;99.90;;;;;;5010093;28;20213;-51
2022/10/04 03:01:07;;;;;;;12.60;5.20;;;7.80;99.90;;;;;;5009584;28;20216;-51
2022/10/04 03:03:37;;;;;;;9.60;4.10;;;7.80;99.90;;;;;;5004533;28;20254;-51
2022/10/04 03:06:08;;;;;;;36.47;13.60;;;7.80;99.90;;;;;;5004773;28;20338;-51
2022/10/04 03:08:44;;;;;;;12.90;7.63;;;7.80;99.90;;;;;;5009649;28;20325;-51
2022/10/04 03:11:15;;;;;;;9.40;3.53;;;7.80;99.90;;;;;;5009712;28;20254;-51
2022/10/04 03:13:46;;;;;;;5.33;3.73;;;7.80;99.90;;;;;;5008291;28;20734;-51
2022/10/04 03:16:15;;;;;;;27.33;24.70;;;7.70;99.90;;;;;;5009535;28;20249;-51
2022/10/04 03:18:45;;;;;;;4.93;4.23;;;7.70;99.90;;;;;;5009746;28;20688;-51
2022/10/04 03:21:17;;;;;;;37.53;28.80;;;7.80;99.90;;;;;;5009919;28;20329;-51
2022/10/04 03:23:46;;;;;;;14.27;10.27;;;7.80;99.90;;;;;;5009007;28;20306;-51
2022/10/04 03:26:27;;;;;;;20.67;15.53;;;7.80;99.90;;;;;;5003624;28;20229;-51
2022/10/04 03:28:56;;;;;;;4.53;4.13;;;7.80;99.90;;;;;;5009511;28;20233;-51
2022/10/04 03:31:26;;;;;;;3.80;3.30;;;7.80;99.90;;;;;;5009216;28;20701;-51
2022/10/04 03:33:55;;;;;;;12.13;7.37;;;7.80;99.90;;;;;;5008598;28;20652;-52
2022/10/04 03:36:26;;;;;;;10.03;7.30;;;7.80;99.90;;;;;;5009359;28;20207;-51
2022/10/04 03:38:56;;;;;;;11.13;5.13;;;7.80;99.90;;;;;;5008777;28;20206;-52
2022/10/04 03:41:26;;;;;;;17.63;11.37;;;7.80;99.90;;;;;;5009552;28;20734;-51
2022/10/04 03:43:56;;;;;;;18.00;15.63;;;7.80;99.90;;;;;;5008628;28;20207;-51
2022/10/04 03:46:29;;;;;;;8.63;7.80;;;7.80;99.90;;;;;;5008989;28;20225;-51
2022/10/04 03:48:58;;;;;;;6.20;4.43;;;7.80;99.90;;;;;;5009278;28;20216;-51
2022/10/04 03:51:28;;;;;;;14.07;9.70;;;7.80;99.90;;;;;;5008670;28;20637;-51
2022/10/04 03:54:16;;;;;;;20.60;14.63;;;7.80;99.90;;;;;;5007574;28;20306;-51
2022/10/04 03:56:47;;;;;;;12.80;9.87;;;7.80;99.90;;;;;;5006961;28;20762;-51
2022/10/04 03:59:18;;;;;;;6.90;3.50;;;7.80;99.90;;;;;;5006714;28;20297;-51
2022/10/04 04:01:49;;;;;;;25.03;22.50;;;7.90;99.90;;;;;;5008506;28;20215;-51
2022/10/04 04:04:23;;;;;;;9.47;7.43;;;7.90;99.90;;;;;;5008175;28;20207;-51
2022/10/04 04:06:59;;;;;;;24.87;15.80;;;7.90;99.90;;;;;;5008444;28;20368;-51
2022/10/04 04:09:39;;;;;;;7.90;4.23;;;7.90;99.90;;;;;;5008339;28;20242;-51
2022/10/04 04:12:13;;;;;;;12.33;6.40;;;7.90;99.90;;;;;;5008000;28;20226;-51
2022/10/04 04:14:43;;;;;;;26.97;19.10;;;7.90;99.90;;;;;;5008520;28;20210;-52
2022/10/04 04:17:34;;;;;;;32.97;28.27;;;7.90;99.90;;;;;;5008612;28;20594;-51
2022/10/04 04:20:07;;;;;;;7.00;4.67;;;7.80;99.90;;;;;;5006802;28;20238;-51
2022/10/04 04:22:36;;;;;;;16.40;10.80;;;7.80;99.90;;;;;;5008127;28;20227;-51
2022/10/04 04:25:08;;;;;;;23.83;16.40;;;7.80;99.90;;;;;;5007215;28;20286;-51
2022/10/04 04:27:41;;;;;;;17.47;11.97;;;7.80;99.90;;;;;;5010820;28;20678;-50
2022/10/04 04:30:17;;;;;;;22.73;17.57;;;7.90;99.90;;;;;;5010442;28;20288;-50
2022/10/04 04:32:51;;;;;;;6.20;3.73;;;7.90;99.90;;;;;;5008643;28;20230;-51
2022/10/04 04:35:25;;;;;;;20.20;15.63;;;8.00;99.90;;;;;;5012116;28;20264;-51
2022/10/04 04:38:04;;;;;;;12.50;6.37;;;8.00;99.90;;;;;;5012411;28;20282;-51
2022/10/04 04:40:33;;;;;;;6.67;5.77;;;7.90;99.90;;;;;;5000898;28;20301;-51
2022/10/04 04:43:04;;;;;;;6.50;3.83;;;7.90;99.90;;;;;;4993580;28;20333;-51
2022/10/04 04:45:34;;;;;;;17.03;13.27;;;7.90;99.90;;;;;;5011085;28;20210;-51
2022/10/04 04:48:03;;;;;;;8.97;4.30;;;7.90;99.90;;;;;;5011173;28;20215;-50
2022/10/04 04:50:34;;;;;;;19.70;12.20;;;7.90;99.90;;;;;;5010263;28;20238;-51
2022/10/04 04:53:07;;;;;;;11.60;8.03;;;7.90;99.90;;;;;;5011053;28;20341;-51
2022/10/04 04:55:39;;;;;;;5.80;3.63;;;7.90;99.90;;;;;;5009999;28;20207;-52
2022/10/04 04:58:31;;;;;;;9.80;8.67;;;7.80;99.90;;;;;;5012238;28;20215;-50
2022/10/04 05:01:03;;;;;;;22.30;14.80;;;7.80;99.90;;;;;;5007991;28;20214;-51
2022/10/04 05:03:32;;;;;;;8.83;6.53;;;7.80;99.90;;;;;;5006079;28;20296;-50
2022/10/04 05:06:03;;;;;;;7.00;4.40;;;7.70;99.90;;;;;;5010984;28;20772;-51
2022/10/04 05:08:33;;;;;;;7.57;5.00;;;7.70;99.90;;;;;;5010805;28;20314;-51
2022/10/04 05:11:15;;;;;;;14.87;10.63;;;7.60;99.90;;;;;;5009299;28;20230;-51
2022/10/04 05:13:51;;;;;;;14.93;12.03;;;7.60;99.90;;;;;;5010918;28;20240;-50
2022/10/04 05:16:23;;;;;;;17.00;12.90;;;7.50;99.90;;;;;;5010648;28;20941;-51
2022/10/04 05:18:57;;;;;;;8.90;4.97;;;7.50;99.90;;;;;;5010187;28;20253;-51
2022/10/04 05:21:28;;;;;;;10.30;7.77;;;7.50;99.90;;;;;;5009905;28;20239;-51
2022/10/04 05:23:58;;;;;;;7.93;5.10;;;7.50;99.90;;;;;;5010804;28;20294;-51
2022/10/04 05:26:29;;;;;;;19.43;13.90;;;7.50;99.90;;;;;;5010853;28;20585;-51
2022/10/04 05:29:07;;;;;;;12.47;10.57;;;7.50;99.90;;;;;;5011033;28;20783;-51
2022/10/04 05:31:45;;;;;;;16.07;11.90;;;7.50;99.90;;;;;;5009282;28;20294;-50
2022/10/04 05:34:22;;;;;;;19.93;11.03;;;7.50;99.90;;;;;;5004977;28;20216;-51
2022/10/04 05:37:19;;;;;;;33.90;26.13;;;7.60;99.90;;;;;;5006525;28;20301;-51
2022/10/04 05:39:51;;;;;;;7.60;7.00;;;7.60;99.90;;;;;;5002629;28;20592;-51
2022/10/04 05:42:25;;;;;;;7.93;6.70;;;7.70;99.90;;;;;;5008301;28;20334;-51
2022/10/04 05:44:57;;;;;;;15.03;11.03;;;7.70;99.90;;;;;;5011127;28;20211;-51
2022/10/04 05:47:27;;;;;;;10.57;5.00;;;7.80;99.90;;;;;;5008743;28;20321;-51
2022/10/04 05:49:59;;;;;;;16.33;5.77;;;7.90;99.90;;;;;;5010164;28;20944;-50
2022/10/04 05:52:32;;;;;;;12.33;8.87;;;7.90;99.90;;;;;;5009227;28;20235;-51
2022/10/04 05:55:27;;;;;;;28.13;9.97;;;7.90;99.90;;;;;;5005592;28;20251;-51
2022/10/04 05:58:46;;;;;;;67.50;8.87;;;7.90;99.90;;;;;;4998994;28;20289;-51
2022/10/04 06:01:31;;;;;;;90.50;21.83;;;8.00;99.90;;;;;;4949615;29;20335;-51
2022/10/04 06:04:22;;;;;;;78.47;12.47;;;8.00;99.90;;;;;;4940269;28;20212;-51
2022/10/04 06:06:57;;;;;;;79.00;24.33;;;8.00;99.90;;;;;;4991122;28;20203;-51
2022/10/04 06:09:47;;;;;;;51.83;10.13;;;8.10;99.90;;;;;;5009373;28;20719;-51
2022/10/04 06:12:28;;;;;;;84.93;27.03;;;8.10;99.90;;;;;;5002805;28;20866;-51
2022/10/04 06:15:24;;;;;;;91.23;33.33;;;8.10;99.90;;;;;;5000788;28;20211;-51
2022/10/04 06:18:16;;;;;;;66.87;23.53;;;8.20;99.90;;;;;;5003689;28;20754;-51
2022/10/04 06:21:08;;;;;;;40.33;16.97;;;8.20;99.90;;;;;;5009121;28;20582;-51
2022/10/04 06:23:45;;;;;;;30.17;12.73;;;8.20;99.90;;;;;;5009756;28;20223;-52
2022/10/04 06:26:19;;;;;;;23.57;9.87;;;8.30;99.90;;;;;;5010263;28;20292;-51
2022/10/04 06:28:51;;;;;;;29.50;12.03;;;8.30;99.90;;;;;;5009870;28;20222;-51
2022/10/04 06:31:53;;;;;;;24.30;7.77;;;8.40;99.90;;;;;;5010145;28;20215;-51
2022/10/04 06:34:47;;;;;;;73.00;53.80;;;8.40;99.90;;;;;;5006164;28;20681;-51
2022/10/04 06:37:53;;;;;;;42.37;18.70;;;8.40;99.90;;;;;;5007715;28;20293;-51
2022/10/04 06:41:01;;;;;;;40.53;35.70;;;8.40;99.90;;;;;;4996831;28;20289;-51
2022/10/04 06:43:45;;;;;;;49.37;38.47;;;8.50;99.90;;;;;;4995068;28;20227;-51
2022/10/04 06:46:22;;;;;;;12.03;8.33;;;8.50;99.90;;;;;;5007609;28;20293;-50
2022/10/04 06:49:07;;;;;;;43.17;30.40;;;8.60;99.90;;;;;;5009706;28;20938;-51
2022/10/04 06:51:50;;;;;;;38.33;29.67;;;8.60;99.90;;;;;;5000563;28;20297;-51
2022/10/04 06:54:32;;;;;;;25.43;15.57;;;8.70;99.90;;;;;;5008902;28;20211;-51
2022/10/04 06:57:30;;;;;;;22.87;14.57;;;8.80;99.90;;;;;;5008648;28;20221;-52
2022/10/04 07:00:13;;;;;;;23.33;14.27;;;8.90;99.90;;;;;;5009927;28;20286;-52
2022/10/04 07:02:46;;;;;;;31.33;22.97;;;9.00;99.90;;;;;;5003775;28;20250;-51
2022/10/04 07:05:29;;;;;;;24.63;14.43;;;9.10;99.90;;;;;;5007674;28;20217;-52
2022/10/04 07:08:07;;;;;;;29.43;16.43;;;9.10;99.90;;;;;;5004242;28;20840;-51
2022/10/04 07:10:48;;;;;;;18.97;14.10;;;9.20;99.90;;;;;;5008439;28;20863;-52
2022/10/04 07:13:37;;;;;;;57.37;42.60;;;9.20;99.90;;;;;;5008501;28;20261;-51
2022/10/04 07:16:09;;;;;;;29.50;11.53;;;9.30;99.90;;;;;;5007477;28;20199;-51
2022/10/04 07:18:49;;;;;;;25.60;17.67;;;9.30;99.90;;;;;;5007571;28;20269;-51
2022/10/04 07:21:25;;;;;;;25.80;12.20;;;9.40;99.90;;;;;;5009218;28;20216;-51
2022/10/04 07:24:00;;;;;;;58.30;29.43;;;9.50;99.90;;;;;;5008275;28;20226;-52
2022/10/04 07:26:34;;;;;;;40.53;20.30;;;9.60;99.90;;;;;;5009043;28;20595;-51
2022/10/04 07:29:21;;;;;;;82.07;38.50;;;9.70;99.90;;;;;;5009108;28;20211;-51
2022/10/04 07:31:53;;;;;;;53.67;25.17;;;9.80;99.90;;;;;;5005315;28;20277;-52
2022/10/04 07:34:26;;;;;;;145.97;84.83;;;9.80;99.90;;;;;;5008587;28;20292;-51
2022/10/04 07:36:57;;;;;;;68.67;31.60;;;9.90;99.90;;;;;;4992088;28;20206;-51
2022/10/04 07:39:31;;;;;;;74.77;24.67;;;9.90;99.90;;;;;;5004273;28;20660;-52
2022/10/04 07:42:07;;;;;;;70.17;24.90;;;10.00;99.90;;;;;;4998264;28;20261;-52
2022/10/04 07:44:38;;;;;;;48.43;17.43;;;10.00;99.90;;;;;;5002199;28;20300;-51
2022/10/04 07:47:18;;;;;;;128.97;55.30;;;10.00;99.90;;;;;;5004228;28;20203;-52
2022/10/04 07:49:49;;;;;;;256.07;125.67;;;10.10;99.90;;;;;;5006873;28;20766;-51
2022/10/04 07:52:49;;;;;;;77.23;31.13;;;10.10;99.90;;;;;;5000968;28;20258;-51
2022/10/04 07:55:28;;;;;;;71.27;15.87;;;10.30;99.90;;;;;;5008015;28;20728;-51
2022/10/04 07:58:23;;;;;;;229.47;118.33;;;10.30;99.90;;;;;;5006943;28;20201;-52
2022/10/04 08:00:59;;;;;;;136.47;45.43;;;10.40;99.90;;;;;;5011640;28;20214;-51
2022/10/04 08:03:57;;;;;;;95.93;49.90;;;10.40;99.90;;;;;;5012307;28;20226;-53
2022/10/04 08:06:34;;;;;;;109.13;58.43;;;10.50;99.90;;;;;;4996493;28;20952;-50
2022/10/04 08:09:23;;;;;;;241.47;109.27;;;10.70;99.90;;;;;;5011600;28;20304;-50
2022/10/04 08:12:04;;;;;;;143.40;91.30;;;10.70;99.90;;;;;;5010410;28;20313;-52
2022/10/04 08:14:46;;;;;;;139.47;82.73;;;10.80;99.90;;;;;;5012115;28;20755;-52
2022/10/04 08:17:22;;;;;;;64.50;45.70;;;10.80;99.90;;;;;;5000754;28;20249;-52
2022/10/04 08:20:01;;;;;;;277.60;166.43;;;10.90;99.90;;;;;;5011914;28;20293;-49
2022/10/04 08:22:49;;;;;;;110.63;50.50;;;10.90;99.90;;;;;;5009776;28;20237;-51
2022/10/04 08:25:26;;;;;;;181.47;110.80;;;11.00;99.90;;;;;;5011276;28;20306;-51
2022/10/04 08:31:13;;;;;;;94.97;54.70;;;11.20;99.90;;;;;;5011402;28;20227;-52
2022/10/04 08:33:57;;;;;;;122.37;69.17;;;11.20;99.90;;;;;;5010709;28;20234;-51
2022/10/04 08:36:42;;;;;;;221.63;154.80;;;11.20;99.90;;;;;;5004382;28;20699;-51
2022/10/04 08:39:23;;;;;;;172.27;123.67;;;11.30;99.90;;;;;;5006089;28;20199;-51
2022/10/04 08:42:24;;;;;;;72.73;41.97;;;11.40;99.90;;;;;;5010747;28;20286;-51
2022/10/04 08:45:23;;;;;;;154.13;111.77;;;11.40;99.90;;;;;;5011919;28;20293;-52
2022/10/04 08:48:21;;;;;;;99.03;67.87;;;11.50;99.90;;;;;;5011129;28;20217;-51
2022/10/04 08:51:26;;;;;;;51.23;33.67;;;11.60;99.90;;;;;;5005300;28;20314;-51
2022/10/04 08:54:20;;;;;;;161.83;121.57;;;11.80;99.90;;;;;;5009346;28;20883;-51
2022/10/04 08:57:14;;;;;;;173.90;110.47;;;11.90;99.90;;;;;;5000123;28;20992;-50
2022/10/04 09:00:14;;;;;;;233.40;151.33;;;11.90;99.90;;;;;;5010243;28;20608;-51
2022/10/04 09:03:14;;;;;;;234.40;139.47;;;12.00;99.90;;;;;;5006417;28;20306;-51
2022/10/04 09:05:59;;;;;;;132.90;77.80;;;12.10;99.90;;;;;;5011634;28;20206;-51
2022/10/04 09:09:06;;;;;;;246.00;149.60;;;12.00;99.90;;;;;;4998793;28;20317;-51
2022/10/04 09:11:45;;;;;;;226.50;172.57;;;12.00;99.90;;;;;;5009309;28;20203;-50
2022/10/04 09:14:42;;;;;;;191.23;126.33;;;12.00;99.90;;;;;;5011362;28;20210;-51
2022/10/04 09:17:20;;;;;;;156.63;102.73;;;12.00;99.90;;;;;;5010362;28;20286;-51
2022/10/04 09:20:02;;;;;;;250.73;144.47;;;12.40;99.90;;;;;;5010956;28;20249;-51
2022/10/04 09:22:58;;;;;;;216.67;160.90;;;12.60;99.90;;;;;;5007525;28;20668;-51
2022/10/04 09:25:56;;;;;;;173.57;115.70;;;12.50;99.90;;;;;;4997286;28;20692;-51
2022/10/04 09:28:59;;;;;;;221.80;151.00;;;12.50;99.90;;;;;;5010803;28;20213;-51
2022/10/04 09:32:19;;;;;;;257.30;174.03;;;12.50;99.90;;;;;;5009761;28;20211;-51
2022/10/04 09:35:13;;;;;;;107.33;67.60;;;12.40;99.90;;;;;;4978497;28;20298;-50
2022/10/04 09:37:57;;;;;;;91.03;63.90;;;12.40;99.90;;;;;;5001363;28;20242;-51
2022/10/04 09:40:50;;;;;;;153.37;83.67;;;12.60;99.90;;;;;;5010517;28;20206;-52
2022/10/04 09:43:47;;;;;;;118.43;70.03;;;12.70;99.90;;;;;;5010384;28;20317;-51
2022/10/04 09:46:45;;;;;;;119.90;76.03;;;12.80;99.90;;;;;;5010984;28;20207;-51
2022/10/04 09:49:34;;;;;;;144.23;83.87;;;12.80;99.90;;;;;;5006667;28;20211;-51
2022/10/04 09:52:20;;;;;;;203.50;129.30;;;12.90;99.90;;;;;;5009719;28;20269;-51
2022/10/04 09:55:13;;;;;;;125.73;78.03;;;12.90;99.90;;;;;;5010120;28;20238;-51
2022/10/04 09:57:52;;;;;;;156.13;109.87;;;13.00;99.90;;;;;;5004324;28;20238;-51
2022/10/04 10:00:24;;;;;;;133.50;78.70;;;13.00;99.90;;;;;;5010101;28;20239;-51
2022/10/04 10:03:20;;;;;;;210.83;140.30;;;13.10;99.90;;;;;;5009402;28;20322;-52
2022/10/04 10:06:14;;;;;;;251.23;140.60;;;13.00;99.90;;;;;;5010188;28;20330;-51
2022/10/04 10:08:57;;;;;;;177.50;121.57;;;13.00;99.90;;;;;;4999236;28;20215;-51
2022/10/04 10:14:48;;;;;;;158.43;80.33;;;13.00;99.90;;;;;;5007980;28;20207;-50
2022/10/04 10:17:24;;;;;;;172.47;122.50;;;12.90;99.90;;;;;;5009414;28;20642;-51
2022/10/04 10:20:22;;;;;;;208.57;136.77;;;12.90;99.90;;;;;;5006082;28;20209;-51
2022/10/04 10:23:13;;;;;;;162.20;116.43;;;12.90;99.90;;;;;;5007931;28;20317;-51
2022/10/04 10:25:58;;;;;;;125.97;68.93;;;13.00;99.90;;;;;;4986786;28;20215;-51
2022/10/04 10:28:56;;;;;;;102.50;65.10;;;13.00;99.90;;;;;;5006678;28;20297;-52
2022/10/04 10:31:46;;;;;;;188.33;110.47;;;13.10;99.90;;;;;;5002415;28;20782;-51
2022/10/04 10:34:54;;;;;;;110.00;63.67;;;13.00;99.90;;;;;;5004564;28;20324;-51
2022/10/04 10:37:39;;;;;;;164.70;122.40;;;13.10;99.90;;;;;;5002729;28;20207;-52
2022/10/04 10:40:31;;;;;;;189.80;119.93;;;13.10;99.90;;;;;;5005346;28;20238;-51
2022/10/04 10:43:45;;;;;;;152.30;84.83;;;13.10;99.90;;;;;;5008416;28;20306;-51
2022/10/04 10:46:28;;;;;;;283.10;144.70;;;13.30;99.90;;;;;;5006479;28;20296;-51
2022/10/04 10:49:14;;;;;;;268.70;174.20;;;13.20;99.90;;;;;;5006691;28;20237;-51
2022/10/04 10:52:24;;;;;;;170.60;114.07;;;13.30;99.90;;;;;;5007705;28;20269;-51
2022/10/04 10:55:29;;;;;;;153.87;90.07;;;13.40;99.90;;;;;;4977913;28;20277;-52
2022/10/04 10:58:24;;;;;;;116.03;59.43;;;13.40;99.90;;;;;;5006845;28;20199;-51
2022/10/04 11:01:04;;;;;;;155.33;89.40;;;13.40;99.90;;;;;;4972366;28;20297;-51
2022/10/04 11:04:08;;;;;;;198.67;133.70;;;13.40;99.90;;;;;;5004093;28;20313;-52
2022/10/04 11:07:06;;;;;;;98.00;51.97;;;13.50;99.90;;;;;;4984918;28;20293;-51
2022/10/04 11:09:50;;;;;;;108.23;56.10;;;13.60;99.90;;;;;;4997725;28;20225;-51
2022/10/04 11:13:06;;;;;;;248.47;140.13;;;13.70;99.90;;;;;;5008288;28;20890;-51
2022/10/04 11:16:10;;;;;;;103.20;73.70;;;13.70;99.90;;;;;;5009325;28;20313;-51
2022/10/04 11:19:05;;;;;;;515.60;292.03;;;13.70;99.90;;;;;;5003430;28;20206;-51
2022/10/04 11:22:21;;;;;;;230.60;124.13;;;13.70;99.90;;;;;;5008032;28;20234;-51
2022/10/04 11:25:12;;;;;;;340.87;172.67;;;13.80;99.90;;;;;;5003900;28;20215;-51
2022/10/04 11:27:49;;;;;;;194.93;96.40;;;13.90;99.90;;;;;;5008691;28;20767;-50
2022/10/04 11:30:25;;;;;;;313.67;195.23;;;13.90;99.90;;;;;;5008668;28;20226;-50
2022/10/04 11:33:29;;;;;;;616.90;302.00;;;13.90;99.90;;;;;;4999980;28;20338;-51
2022/10/04 11:39:06;;;;;;;341.13;186.13;;;14.00;99.90;;;;;;5071205;28;20585;-50
2022/10/04 11:41:49;;;;;;;484.07;269.67;;;14.10;99.90;;;;;;5057949;28;20240;-51
2022/10/04 11:44:46;;;;;;;301.83;182.77;;;14.20;99.90;;;;;;5064918;28;20205;-51
2022/10/04 11:47:28;;;;;;;232.43;141.90;;;14.20;99.90;;;;;;5063601;28;20193;-50
2022/10/04 11:50:24;;;;;;;240.83;144.77;;;14.20;99.90;;;;;;5055656;28;20701;-51
2022/10/04 11:53:27;;;;;;;173.57;107.67;;;14.30;99.90;;;;;;5063028;28;20256;-50
2022/10/04 11:56:11;;;;;;;241.43;135.40;;;14.30;99.90;;;;;;5059045;28;20244;-50
2022/10/04 11:59:04;;;;;;;616.67;317.73;;;14.40;99.90;;;;;;5065474;28;20259;-51
2022/10/04 12:02:16;;;;;;;223.13;126.00;;;14.40;99.90;;;;;;5064881;28;20258;-51
2022/10/04 12:05:18;;;;;;;550.93;280.73;;;14.50;99.90;;;;;;5064396;28;20682;-51
2022/10/04 12:07:56;;;;;;;376.10;214.33;;;14.40;99.90;;;;;;5063704;28;20204;-50
2022/10/04 12:10:30;;;;;;;678.23;324.93;;;14.50;99.90;;;;;;5057034;28;20240;-51
2022/10/04 12:13:49;;;;;;;281.27;172.77;;;14.60;99.90;;;;;;5064298;28;20261;-50
2022/10/04 12:16:42;;;;;;;213.00;118.43;;;14.60;99.90;;;;;;5011373;28;20282;-51
2022/10/04 12:19:50;;;;;;;384.73;200.77;;;14.60;99.90;;;;;;5064605;28;20581;-51
2022/10/04 12:22:44;;;;;;;178.67;107.43;;;14.60;99.90;;;;;;5063765;28;20757;-51
2022/10/04 12:25:36;;;;;;;340.77;203.57;;;14.70;99.90;;;;;;5063303;28;20209;-51
2022/10/04 12:28:41;;;;;;;190.10;116.33;;;14.70;99.90;;;;;;5058401;28;20330;-51
2022/10/04 12:31:20;;;;;;;461.27;230.97;;;14.70;99.90;;;;;;5045185;28;20274;-50
2022/10/04 12:33:57;;;;;;;195.17;112.27;;;14.80;99.90;;;;;;5062743;28;20229;-50
2022/10/04 12:36:37;;;;;;;416.90;229.00;;;14.70;99.90;;;;;;5052809;28;20204;-51
2022/10/04 12:39:31;;;;;;;595.83;308.43;;;14.80;99.90;;;;;;5063800;28;20245;-51
2022/10/04 12:42:11;;;;;;;287.23;178.97;;;14.70;99.90;;;;;;5060419;28;20313;-49
2022/10/04 12:44:55;;;;;;;229.87;148.80;;;14.80;99.90;;;;;;5064085;28;20228;-51
2022/10/04 12:47:55;;;;;;;353.73;221.90;;;14.80;99.90;;;;;;5063801;28;20284;-51
2022/10/04 12:50:41;;;;;;;202.70;119.82;;;14.80;99.90;;;;;;5046387;28;20212;-50
2022/10/04 12:53:18;;;;;;;292.73;181.53;;;14.80;99.90;;;;;;5039711;28;20329;-50
2022/10/04 12:56:04;;;;;;;325.77;190.17;;;14.90;99.90;;;;;;5050550;28;20320;-50
2022/10/04 12:58:49;;;;;;;257.17;165.30;;;14.90;99.90;;;;;;5050726;28;20736;-50
2022/10/04 13:01:25;;;;;;;350.35;157.85;;;15.00;99.90;;;;;;5048163;28;20226;-51
2022/10/04 13:04:21;;;;;;;323.83;184.25;;;15.00;99.90;;;;;;5049837;28;20232;-51
2022/10/04 13:07:06;;;;;;;207.37;117.53;;;15.00;99.90;;;;;;5038117;28;20220;-50
2022/10/04 13:09:50;;;;;;;346.67;175.20;;;15.10;99.90;;;;;;5042022;28;20308;-51
2022/10/04 13:13:07;;;;;;;476.40;302.97;;;15.20;99.90;;;;;;5046388;28;20233;-50
2022/10/04 13:15:41;;;;;;;375.60;207.83;;;15.20;99.90;;;;;;5039313;28;20214;-50
2022/10/04 13:18:36;;;;;;;438.83;248.50;;;15.20;99.90;;;;;;5048896;28;20222;-50
2022/10/04 13:21:06;;;;;;;444.13;284.07;;;15.20;99.90;;;;;;5049936;28;20291;-50
2022/10/04 13:23:58;;;;;;;361.57;206.80;;;15.20;99.90;;;;;;5049486;28;20240;-51
2022/10/04 13:26:43;;;;;;;246.90;165.67;;;15.20;99.90;;;;;;5048488;28;20213;-51
2022/10/04 13:29:21;;;;;;;333.37;192.93;;;15.30;99.90;;;;;;5050461;28;20233;-50
2022/10/04 13:31:53;;;;;;;156.50;89.33;;;15.30;99.90;;;;;;5045982;28;20300;-50
2022/10/04 13:34:29;;;;;;;446.90;255.35;;;15.40;99.90;;;;;;5048411;28;20198;-51
2022/10/04 13:37:17;;;;;;;171.88;108.25;;;15.30;99.90;;;;;;5050074;28;20241;-50
2022/10/04 13:40:03;;;;;;;404.98;221.02;;;15.30;99.90;;;;;;5042204;28;20332;-51
2022/10/04 13:42:47;;;;;;;212.40;106.88;;;15.30;99.90;;;;;;5046917;28;20332;-51
2022/10/04 13:45:27;;;;;;;492.88;287.10;;;15.30;99.90;;;;;;5050075;28;20209;-50
2022/10/04 13:48:33;;;;;;;249.70;166.40;;;15.30;99.90;;;;;;5049844;28;20200;-51
2022/10/04 13:51:21;;;;;;;300.88;179.45;;;15.30;99.90;;;;;;5040483;28;20466;-50
2022/10/04 13:56:58;;;;;;;218.20;159.77;;;15.30;99.90;;;;;;5047641;28;20296;-51
2022/10/04 13:59:36;;;;;;;466.10;295.07;;;15.30;99.90;;;;;;5038614;28;20225;-51
2022/10/04 14:02:27;;;;;;;289.77;182.57;;;15.30;99.90;;;;;;5041613;28;20233;-51